Zion Natl Park, Utah
Current Conditions -  °F | °C
As of 7:15 AM on Wednesday 28 Jan 2015 (Local Time) from KAZC Reporting Station
Haze Haze  
Wind Chill: 32°   Ceiling: 100
Heat Index: 32°   Visibility: 0.75mi
Dew Point: 32°   Wind: 0mph
Humidity: 100%   Direction: NA
Pressure: 30.32"   Gusts: NA
Location:  37.17°N, 113°W
Report Text: KAZC 281415Z AUTO 00000KT 3/4SM BR OVC001 00/00 A3032 RMK AO2 T00010001
Loading
Personal Weather Stations






























Interactive Weather Map New forecast layout! Learn more

10-Day Weather Forecast

Advertisements
Track Severe Weather on mobile